Virginia Beach, VA

2:27 AM EDT on July 04, 2015 (GMT -0400)
kings grant | | Change Station
CLOSE
Current Station
Personal Weather Station
Location: Virginia Beach, VA
Elevation: 33 ft
Nearby Weather Stations

Elev 33 ft 36.85 °N, 76.08 °W | Updated 24 seconds ago

Mostly Cloudy
Mostly Cloudy
74.3 °F
Feels Like 71 °F
N
0.0
Wind Variable Wind from SW
Gusts 0.0 mph

Today
High -- | Low -- °F
--% Chance of Precip.
Yesterday
High -- | Low -- °F
Precip. -- in
5:50 AM 8:27 PM
Waning Gibbous, 94% visible
Pressure 29.86 in
Visibility 10.0 miles
Clouds Few 800 ft
Scattered Clouds 6000 ft
Mostly Cloudy 7500 ft
Mostly Cloudy 28000 ft
Heat Index 71 °F
Dew Point 74 °F
Humidity 99%
Rainfall 0.00 in
Snow Depth Not available.
UV 0.0 out of 12
Pollen .50 out of 12
Air Quality Not available.
Flu Activity Not available.
METAR KNTU 040556Z 21006KT 10SM FEW008 SCT060 BKN075 BKN280 24/22 A2985 RMK AO2 SLP110 60028 T02440222 10256 20233 56014

More Conditions Fewer Conditions

Pressure 29.86 in
Visibility 10.0 miles
Clouds Few 800 ft
Scattered Clouds 6000 ft
Mostly Cloudy 7500 ft
Mostly Cloudy 28000 ft
Heat Index 71 °F
Dew Point 74 °F
Humidity 99%
Rainfall 0.00 in
Snow Depth Not available.
UV 0.0 out of 12
Pollen .50 out of 12
Air Quality Not available.
Flu Activity Not available.
METAR KNTU 040556Z 21006KT 10SM FEW008 SCT060 BKN075 BKN280 24/22 A2985 RMK AO2 SLP110 60028 T02440222 10256 20233 56014

More Conditions Fewer Conditions

10-Day Weather Forecast

×

Almanac

Astronomy

Jul. 04, 2015 Rise Set
Actual Time
Civil Twilight
Nautical Twilight
Astronomical Twilight
Moon
Length of Visible Light
Length of Day
Tomorrow will be .
, % of the Moon is Illuminated

Today's Extremes

State Highs State Lows

Community

WunderPhotos

Upload Photos

1,834,926 photos uploaded!

WunderBlogs® & News

Nearby

Air Quality

  Air Quality AQ Index Pollutant
Not available.

Snow Depth

Station Depth Elevation

Earthquake Activity

City Distance Mag. Time & Date
Minimum magnitude displayed is 2.5.

Coastal Water Temperatures

Place Temperature

Stations

Nearby Weather Stations

Station Location Temp. Windchill Dew Point Humidity Wind Precip. Elev Updated Type